Time;durP1;ratioP1;P1;durP2;ratioP2;P2;SDS_P1;SDS_P2;PMS_P1;PMS_P2;Temp;Humidity;BMP_temperature;BMP_pressure;BME280_temperature;BME280_humidity;BME280_pressure;Samples;Min_cycle;Max_cycle;Signal;HPM_P1;HPM_P2
2021/05/27 00:00:32;;;;;;;1.50;1.00;;;12.00;98.20;;;;;;5032980;28;20467;-80
2021/05/27 00:02:59;;;;;;;1.50;1.00;;;11.90;98.20;;;;;;5033132;28;20573;-81
2021/05/27 00:05:26;;;;;;;1.50;1.00;;;11.90;98.20;;;;;;5034855;28;20483;-81
2021/05/27 00:07:53;;;;;;;1.50;1.10;;;11.90;98.20;;;;;;5039765;28;20482;-80
2021/05/27 00:10:21;;;;;;;1.50;1.00;;;11.90;98.20;;;;;;5035295;28;20456;-81
2021/05/27 00:12:48;;;;;;;1.50;1.00;;;11.90;98.20;;;;;;5035203;28;20512;-81
2021/05/27 00:15:15;;;;;;;1.50;1.07;;;11.90;98.20;;;;;;5036515;28;21013;-82
2021/05/27 00:17:42;;;;;;;1.50;1.10;;;11.90;98.20;;;;;;5038312;28;20569;-81
2021/05/27 00:20:10;;;;;;;1.50;0.90;;;11.90;98.20;;;;;;5036368;28;20828;-81
2021/05/27 00:22:37;;;;;;;1.50;1.00;;;11.90;98.20;;;;;;5038100;28;20479;-81
2021/05/27 00:25:04;;;;;;;1.50;1.00;;;11.90;98.20;;;;;;5035130;28;20534;-81
2021/05/27 00:27:30;;;;;;;1.50;1.00;;;11.90;98.20;;;;;;5036352;28;20489;-80
2021/05/27 00:29:57;;;;;;;1.50;1.00;;;11.90;98.20;;;;;;5036896;28;20813;-80
2021/05/27 00:32:24;;;;;;;1.50;1.00;;;11.90;98.20;;;;;;5034658;28;20479;-80
2021/05/27 00:34:50;;;;;;;1.50;1.00;;;11.90;98.20;;;;;;5036834;28;20525;-81
2021/05/27 00:37:17;;;;;;;1.50;1.00;;;11.90;98.20;;;;;;5036925;28;20478;-81
2021/05/27 00:39:43;;;;;;;1.50;1.07;;;11.90;98.20;;;;;;5037813;28;20467;-81
2021/05/27 00:42:10;;;;;;;1.50;1.00;;;11.90;98.20;;;;;;5033983;28;20985;-81
2021/05/27 00:44:36;;;;;;;1.50;1.00;;;11.90;98.20;;;;;;5038090;28;20958;-80
2021/05/27 00:47:09;;;;;;;1.50;1.10;;;11.90;98.20;;;;;;5033919;28;20887;-79
2021/05/27 00:49:36;;;;;;;1.50;1.10;;;11.90;98.20;;;;;;5037431;28;20459;-81
2021/05/27 00:52:03;;;;;;;1.50;1.00;;;11.90;98.20;;;;;;5034732;28;20478;-80
2021/05/27 00:54:30;;;;;;;1.50;1.10;;;11.90;98.20;;;;;;5038975;28;20527;-81
2021/05/27 00:56:56;;;;;;;1.50;1.00;;;11.90;98.20;;;;;;5035687;28;20952;-81
2021/05/27 00:59:23;;;;;;;1.50;1.10;;;11.80;98.20;;;;;;5043500;28;20479;-81
2021/05/27 01:01:51;;;;;;;1.50;1.10;;;11.80;98.20;;;;;;5032708;28;20502;-80
2021/05/27 01:04:19;;;;;;;1.50;1.00;;;11.80;98.20;;;;;;5039677;28;20889;-80
2021/05/27 01:06:45;;;;;;;1.53;1.10;;;11.80;98.20;;;;;;5032225;28;20478;-80
2021/05/27 01:09:12;;;;;;;1.50;1.03;;;11.80;98.20;;;;;;5044738;28;20459;-80
2021/05/27 01:11:38;;;;;;;1.50;1.00;;;11.70;98.20;;;;;;5030590;28;21090;-80
2021/05/27 01:14:12;;;;;;;1.50;1.10;;;11.70;98.20;;;;;;5044239;28;20466;-80
2021/05/27 01:16:38;;;;;;;1.50;1.20;;;11.70;98.20;;;;;;5032574;28;20486;-80
2021/05/27 01:19:04;;;;;;;1.50;1.10;;;11.70;98.20;;;;;;5043159;28;20562;-80
2021/05/27 01:21:32;;;;;;;1.50;1.00;;;11.60;98.20;;;;;;5034258;28;20227;-80
2021/05/27 01:23:59;;;;;;;1.50;1.10;;;11.60;98.20;;;;;;5049867;28;20935;-79
2021/05/27 01:26:26;;;;;;;1.50;1.00;;;11.60;98.20;;;;;;5038717;28;20478;-80
2021/05/27 01:28:52;;;;;;;1.50;1.10;;;11.50;98.20;;;;;;5031444;28;20570;-80
2021/05/27 01:31:18;;;;;;;1.50;1.10;;;11.50;98.20;;;;;;5027741;28;21188;-80
2021/05/27 01:33:45;;;;;;;1.50;1.00;;;11.50;98.20;;;;;;5040942;28;20463;-80
2021/05/27 01:36:11;;;;;;;1.50;1.00;;;11.40;98.20;;;;;;5027499;28;20483;-80
2021/05/27 01:38:37;;;;;;;1.50;1.10;;;11.40;98.20;;;;;;5041813;28;20466;-80
2021/05/27 01:41:05;;;;;;;1.50;1.10;;;11.40;98.20;;;;;;5022365;28;20874;-81
2021/05/27 01:43:31;;;;;;;1.50;1.10;;;11.40;98.20;;;;;;5037481;28;20856;-81
2021/05/27 01:45:58;;;;;;;1.50;1.03;;;11.30;98.20;;;;;;5020458;28;20491;-81
2021/05/27 01:48:24;;;;;;;1.50;1.10;;;11.30;98.20;;;;;;5040356;28;20462;-82
2021/05/27 01:50:50;;;;;;;1.50;1.00;;;11.20;98.20;;;;;;5020605;28;20990;-81
2021/05/27 01:53:18;;;;;;;1.50;1.10;;;11.20;98.20;;;;;;5045187;28;20467;-79
2021/05/27 01:55:46;;;;;;;1.50;1.00;;;11.20;98.20;;;;;;5034570;28;20494;-80
2021/05/27 01:58:15;;;;;;;1.50;1.10;;;11.20;98.20;;;;;;5024090;28;21093;-80
2021/05/27 02:00:42;;;;;;;1.50;1.10;;;11.20;98.20;;;;;;5034140;28;20471;-80
2021/05/27 02:03:09;;;;;;;1.50;1.10;;;11.20;98.20;;;;;;5037105;28;20865;-81
2021/05/27 02:05:35;;;;;;;1.50;1.20;;;11.10;98.20;;;;;;5033941;28;20562;-80
2021/05/27 02:08:02;;;;;;;1.50;1.10;;;11.10;98.20;;;;;;5035863;28;20528;-80
2021/05/27 02:10:28;;;;;;;1.50;1.20;;;11.10;98.20;;;;;;5032389;28;20456;-80
2021/05/27 02:12:55;;;;;;;1.50;1.00;;;11.10;98.20;;;;;;5036645;28;20565;-80
2021/05/27 02:15:22;;;;;;;1.50;1.10;;;11.10;98.20;;;;;;5034063;28;20574;-80
2021/05/27 02:17:48;;;;;;;1.50;1.10;;;11.10;98.20;;;;;;5035288;28;20478;-80
2021/05/27 02:20:15;;;;;;;1.50;1.10;;;11.10;98.20;;;;;;5034024;28;20467;-80
2021/05/27 02:22:42;;;;;;;1.50;1.10;;;11.20;98.20;;;;;;5034983;28;20540;-80
2021/05/27 02:25:09;;;;;;;1.50;1.10;;;11.20;98.20;;;;;;5030386;28;20854;-80
2021/05/27 02:27:35;;;;;;;1.50;1.10;;;11.20;98.20;;;;;;5040683;28;20497;-80
2021/05/27 02:30:02;;;;;;;1.50;1.10;;;11.20;98.20;;;;;;5037160;28;20848;-81
2021/05/27 02:32:29;;;;;;;1.50;1.10;;;11.20;98.20;;;;;;5036490;28;20500;-80
2021/05/27 02:34:55;;;;;;;1.50;1.10;;;11.30;98.20;;;;;;5037710;28;20870;-79
2021/05/27 02:37:22;;;;;;;1.50;1.10;;;11.30;98.20;;;;;;5034208;28;20489;-80
2021/05/27 02:39:48;;;;;;;1.50;1.10;;;11.30;98.20;;;;;;5034585;28;20481;-80
2021/05/27 02:42:14;;;;;;;1.50;1.10;;;11.40;98.20;;;;;;5035393;28;21011;-81
2021/05/27 02:44:40;;;;;;;1.50;1.10;;;11.40;98.20;;;;;;5040069;28;20473;-80
2021/05/27 02:47:07;;;;;;;1.50;1.10;;;11.40;98.20;;;;;;5038684;28;20531;-80
2021/05/27 02:49:34;;;;;;;1.50;1.03;;;11.40;98.20;;;;;;5039402;28;20543;-80
2021/05/27 02:52:00;;;;;;;1.50;1.10;;;11.40;98.20;;;;;;5031001;28;20462;-81
2021/05/27 02:54:29;;;;;;;1.50;1.10;;;11.40;98.20;;;;;;5039432;28;20526;-80
2021/05/27 02:56:59;;;;;;;1.50;1.10;;;11.40;98.20;;;;;;5033358;28;20478;-81
2021/05/27 02:59:25;;;;;;;1.50;1.10;;;11.40;98.20;;;;;;5040955;28;20917;-81
2021/05/27 03:01:52;;;;;;;1.50;1.10;;;11.40;98.20;;;;;;5034156;28;20478;-79
2021/05/27 03:04:18;;;;;;;1.50;1.00;;;11.40;98.20;;;;;;5039975;28;20459;-80
2021/05/27 03:06:45;;;;;;;1.50;1.10;;;11.40;98.20;;;;;;5028588;28;20478;-80
2021/05/27 03:09:12;;;;;;;1.50;1.10;;;11.50;98.20;;;;;;5042135;28;20835;-81
2021/05/27 03:11:38;;;;;;;1.50;1.07;;;11.50;98.20;;;;;;5033121;28;20470;-80
2021/05/27 03:14:04;;;;;;;1.50;1.10;;;11.50;98.20;;;;;;5042732;28;20471;-80
2021/05/27 03:16:31;;;;;;;1.50;1.10;;;11.50;98.20;;;;;;5030473;28;20894;-81
2021/05/27 03:18:57;;;;;;;1.50;1.10;;;11.50;98.20;;;;;;5043306;28;20463;-82
2021/05/27 03:21:26;;;;;;;1.50;1.10;;;11.50;98.20;;;;;;5029016;28;20466;-81
2021/05/27 03:23:53;;;;;;;1.50;1.10;;;11.50;98.20;;;;;;5041738;28;20523;-80
2021/05/27 03:26:19;;;;;;;1.50;1.10;;;11.50;98.20;;;;;;5028308;28;20673;-79
2021/05/27 03:28:46;;;;;;;1.50;1.10;;;11.40;98.20;;;;;;5040919;28;20463;-82
2021/05/27 03:31:12;;;;;;;1.60;1.30;;;11.40;98.20;;;;;;5026476;28;20493;-81
2021/05/27 03:33:38;;;;;;;1.50;1.00;;;11.40;98.20;;;;;;5038135;28;20485;-81
2021/05/27 03:36:05;;;;;;;1.50;1.00;;;11.40;98.20;;;;;;5026763;28;20493;-82
2021/05/27 03:38:31;;;;;;;1.50;1.00;;;11.40;98.20;;;;;;5042995;28;20467;-82
2021/05/27 03:40:59;;;;;;;1.50;1.10;;;11.40;98.20;;;;;;5026985;28;20494;-81
2021/05/27 03:43:25;;;;;;;1.50;1.07;;;11.40;98.20;;;;;;5048142;28;20478;-81
2021/05/27 03:45:51;;;;;;;1.50;1.10;;;11.40;98.20;;;;;;5025013;28;20989;-81
2021/05/27 03:48:17;;;;;;;1.50;1.10;;;11.40;98.20;;;;;;5046055;28;20463;-81
2021/05/27 03:50:44;;;;;;;1.50;1.10;;;11.40;98.20;;;;;;5031160;28;20459;-81
2021/05/27 03:53:10;;;;;;;1.50;1.10;;;11.40;98.20;;;;;;5024103;28;20544;-81
2021/05/27 03:55:37;;;;;;;1.50;1.10;;;11.40;98.20;;;;;;5036312;28;21050;-81
2021/05/27 04:00:41;;;;;;;1.50;1.10;;;11.40;98.20;;;;;;5035763;28;20479;-81
2021/05/27 04:00:50;;;;;;;1.50;1.10;;;11.40;98.20;;;;;;5025440;28;20725;-80
2021/05/27 04:03:16;;;;;;;1.50;1.10;;;11.40;98.20;;;;;;5048688;28;20482;-81
2021/05/27 04:08:27;;;;;;;1.50;1.10;;;11.40;98.20;;;;;;5017775;28;20482;-80
2021/05/27 04:10:54;;;;;;;1.50;1.20;;;11.40;98.20;;;;;;5021127;28;20517;-82
2021/05/27 04:13:21;;;;;;;1.50;1.07;;;11.40;98.20;;;;;;5041689;28;20466;-81
2021/05/27 04:15:47;;;;;;;1.50;1.00;;;11.40;98.20;;;;;;5020263;28;20493;-81
2021/05/27 04:18:15;;;;;;;1.50;1.10;;;11.40;98.20;;;;;;5045085;28;20463;-81
2021/05/27 04:20:43;;;;;;;1.50;1.00;;;11.40;98.20;;;;;;5034284;28;20467;-81
2021/05/27 04:23:12;;;;;;;1.50;1.10;;;11.40;98.20;;;;;;5038078;28;20983;-82
2021/05/27 04:25:40;;;;;;;1.50;1.10;;;11.40;98.20;;;;;;5034061;28;20516;-81
2021/05/27 04:28:07;;;;;;;1.50;1.10;;;11.40;98.20;;;;;;5035589;28;20547;-82
2021/05/27 04:31:08;;;;;;;1.50;1.10;;;11.40;98.20;;;;;;5033053;28;20555;-81
2021/05/27 04:33:21;;;;;;;1.50;1.03;;;11.40;98.20;;;;;;5019900;28;20485;-82
2021/05/27 04:35:48;;;;;;;1.50;1.07;;;11.50;98.20;;;;;;5023046;28;20490;-80
2021/05/27 04:38:16;;;;;;;1.50;1.10;;;11.50;98.20;;;;;;5044639;28;20463;-81
2021/05/27 04:40:46;;;;;;;1.50;1.10;;;11.50;98.20;;;;;;5034256;28;20551;-81
2021/05/27 04:43:13;;;;;;;1.50;1.00;;;11.50;98.20;;;;;;5022825;28;20471;-81
2021/05/27 04:45:40;;;;;;;1.50;1.00;;;11.50;98.20;;;;;;5032359;28;20573;-82
2021/05/27 04:48:10;;;;;;;1.50;1.00;;;11.50;98.20;;;;;;5031896;28;20492;-82
2021/05/27 04:50:37;;;;;;;1.50;1.10;;;11.50;98.20;;;;;;5032851;28;20565;-81
2021/05/27 04:53:04;;;;;;;1.50;1.00;;;11.50;98.20;;;;;;5038479;28;20489;-81
2021/05/27 04:55:31;;;;;;;1.50;1.00;;;11.60;98.20;;;;;;5037729;28;20475;-81
2021/05/27 04:57:57;;;;;;;1.50;1.07;;;11.60;98.20;;;;;;5034072;28;20474;-81
2021/05/27 05:00:25;;;;;;;1.50;1.10;;;11.60;98.20;;;;;;5035075;28;20462;-82
2021/05/27 05:02:52;;;;;;;1.50;1.10;;;11.60;98.20;;;;;;5037683;28;20497;-82
2021/05/27 05:05:20;;;;;;;1.50;1.10;;;11.60;98.20;;;;;;5036036;28;20483;-83
2021/05/27 05:07:48;;;;;;;1.50;1.10;;;11.60;98.20;;;;;;5042283;28;20508;-83
2021/05/27 05:10:15;;;;;;;1.50;1.00;;;11.60;98.20;;;;;;5033674;28;20463;-83
2021/05/27 05:12:45;;;;;;;1.50;1.07;;;11.60;98.20;;;;;;5032743;28;20490;-82
2021/05/27 05:15:15;;;;;;;1.50;1.00;;;11.60;98.20;;;;;;5033961;28;20514;-83
2021/05/27 05:17:41;;;;;;;1.50;1.00;;;11.60;98.20;;;;;;5034951;28;20913;-82
2021/05/27 05:20:10;;;;;;;1.50;1.10;;;11.60;98.20;;;;;;5034069;28;20565;-83
2021/05/27 05:22:36;;;;;;;1.50;1.00;;;11.60;98.20;;;;;;5040344;28;20473;-83
2021/05/27 05:25:03;;;;;;;1.50;1.10;;;11.60;98.20;;;;;;5040729;28;20478;-83
2021/05/27 05:27:30;;;;;;;1.50;1.10;;;11.60;98.20;;;;;;5037254;28;20478;-83
2021/05/27 05:29:57;;;;;;;1.50;1.10;;;11.60;98.20;;;;;;5033761;28;20499;-83
2021/05/27 05:32:26;;;;;;;1.50;1.00;;;11.60;98.20;;;;;;5019094;28;20478;-84
2021/05/27 05:34:54;;;;;;;1.50;1.10;;;11.60;98.20;;;;;;5026053;28;20459;-84
2021/05/27 05:37:21;;;;;;;1.50;1.10;;;11.60;98.20;;;;;;5023643;28;20982;-86
2021/05/27 05:39:47;;;;;;;1.50;1.00;;;11.50;98.20;;;;;;5028951;28;20547;-85
2021/05/27 05:42:14;;;;;;;1.50;1.00;;;11.50;98.20;;;;;;5027656;28;21012;-85
2021/05/27 05:44:40;;;;;;;1.50;1.10;;;11.50;98.20;;;;;;5033590;28;20455;-85
2021/05/27 05:47:07;;;;;;;1.50;1.20;;;11.50;98.20;;;;;;5027351;28;20488;-85
2021/05/27 05:49:33;;;;;;;1.50;1.00;;;11.40;98.20;;;;;;5031942;28;20460;-86
2021/05/27 05:52:00;;;;;;;1.50;1.10;;;11.40;98.20;;;;;;5025675;28;20647;-87
2021/05/27 05:54:27;;;;;;;1.50;1.00;;;11.40;98.20;;;;;;5031847;28;20628;-86
2021/05/27 05:56:59;;;;;;;1.50;1.07;;;11.40;98.20;;;;;;5026362;28;20484;-87
2021/05/27 05:59:25;;;;;;;1.50;1.00;;;11.40;98.20;;;;;;5033948;28;20479;-86
2021/05/27 06:01:52;;;;;;;1.50;1.00;;;11.40;98.20;;;;;;5028552;28;20509;-87
2021/05/27 06:04:18;;;;;;;1.50;1.10;;;11.40;98.20;;;;;;5040603;28;20466;-87
2021/05/27 06:06:51;;;;;;;1.77;1.30;;;11.40;98.20;;;;;;5031281;28;20510;-82
2021/05/27 06:09:18;;;;;;;1.50;1.00;;;11.40;98.20;;;;;;5040278;28;20962;-86
2021/05/27 06:11:45;;;;;;;1.50;1.03;;;11.30;98.20;;;;;;5027051;28;20478;-85
2021/05/27 06:14:12;;;;;;;1.50;1.10;;;11.30;98.20;;;;;;5040291;28;20780;-87
2021/05/27 06:16:41;;;;;;;1.50;1.00;;;11.30;98.20;;;;;;5033540;28;21019;-87
2021/05/27 06:19:08;;;;;;;1.50;1.10;;;11.30;98.20;;;;;;5042749;28;20688;-87
2021/05/27 06:21:34;;;;;;;1.50;1.10;;;11.40;98.20;;;;;;5032069;28;20481;-87
2021/05/27 06:24:01;;;;;;;1.50;1.00;;;11.40;98.20;;;;;;5045578;28;20532;-86
2021/05/27 06:26:28;;;;;;;1.50;1.00;;;11.40;98.20;;;;;;5020023;28;20493;-86
2021/05/27 06:28:55;;;;;;;1.50;1.10;;;11.50;98.20;;;;;;5046029;28;20494;-85
2021/05/27 06:31:21;;;;;;;1.50;1.00;;;11.50;98.20;;;;;;5031187;28;20996;-86
2021/05/27 06:33:51;;;;;;;1.50;1.10;;;11.50;98.20;;;;;;5043977;28;20954;-86
2021/05/27 06:36:23;;;;;;;1.50;1.10;;;11.60;98.20;;;;;;5018082;28;20486;-86
2021/05/27 06:38:49;;;;;;;1.50;1.10;;;11.60;98.20;;;;;;5042622;28;20486;-86
2021/05/27 06:41:19;;;;;;;1.50;1.10;;;11.60;98.20;;;;;;5031676;28;20987;-87
2021/05/27 06:43:46;;;;;;;1.50;1.10;;;11.60;98.20;;;;;;5046784;28;20468;-87
2021/05/27 06:46:30;;;;;;;1.50;1.00;;;11.60;98.20;;;;;;5028294;28;20477;-86
2021/05/27 06:49:07;;;;;;;1.50;1.00;;;11.70;98.20;;;;;;5041797;28;20847;-86
2021/05/27 06:51:34;;;;;;;1.50;1.00;;;11.80;98.20;;;;;;5029840;28;20517;-86
2021/05/27 06:54:00;;;;;;;1.53;1.10;;;11.80;98.20;;;;;;5044674;28;20694;-85
2021/05/27 06:56:27;;;;;;;1.70;1.40;;;11.80;98.20;;;;;;5030240;28;20830;-87
2021/05/27 06:58:53;;;;;;;1.53;1.00;;;11.80;98.20;;;;;;5048795;28;20467;-88
2021/05/27 07:01:23;;;;;;;1.50;1.00;;;11.80;98.20;;;;;;5033018;28;20506;-85
2021/05/27 07:03:54;;;;;;;1.50;1.00;;;11.80;98.20;;;;;;5045539;28;20463;-86
2021/05/27 07:06:41;;;;;;;1.50;1.00;;;11.70;98.20;;;;;;5030916;28;20535;-88
2021/05/27 07:09:08;;;;;;;1.50;1.10;;;11.80;98.20;;;;;;5025346;28;20498;-87
2021/05/27 07:11:34;;;;;;;1.50;1.10;;;11.80;98.20;;;;;;5032557;28;20514;-82
2021/05/27 07:14:01;;;;;;;1.50;1.00;;;11.80;98.20;;;;;;5038612;28;20841;-89
2021/05/27 07:16:29;;;;;;;1.50;1.00;;;11.80;98.20;;;;;;5026901;28;20911;-87
2021/05/27 07:18:55;;;;;;;1.50;1.00;;;11.90;98.20;;;;;;5042027;28;20459;-87
2021/05/27 07:21:22;;;;;;;1.50;1.00;;;12.00;98.20;;;;;;5026020;28;20532;-80
2021/05/27 07:23:48;;;;;;;1.50;1.00;;;12.00;98.20;;;;;;5042089;28;20842;-86
2021/05/27 07:26:15;;;;;;;1.50;1.00;;;12.10;98.20;;;;;;5025190;28;20474;-87
2021/05/27 07:28:41;;;;;;;1.50;1.03;;;12.20;98.20;;;;;;5035741;28;20963;-88
2021/05/27 07:31:08;;;;;;;1.50;1.00;;;12.20;98.20;;;;;;5024253;28;20648;-87
2021/05/27 07:33:36;;;;;;;1.50;1.00;;;12.20;98.20;;;;;;5043416;28;20471;-88
2021/05/27 07:36:05;;;;;;;1.50;1.00;;;12.20;98.20;;;;;;5001987;28;20578;-88
2021/05/27 07:38:32;;;;;;;1.50;1.00;;;12.20;98.20;;;;;;5022564;28;20470;-87
2021/05/27 07:41:00;;;;;;;1.50;1.07;;;12.30;98.20;;;;;;5000003;28;21180;-86
2021/05/27 07:43:26;;;;;;;1.50;1.10;;;12.30;98.20;;;;;;5009652;28;21017;-85
2021/05/27 07:45:53;;;;;;;1.50;1.00;;;12.30;98.20;;;;;;5002725;28;20496;-83
2021/05/27 07:48:19;;;;;;;1.50;1.00;;;12.30;98.20;;;;;;5008773;28;20522;-84
2021/05/27 07:50:47;;;;;;;1.50;1.00;;;12.30;98.20;;;;;;5006396;28;20460;-86
2021/05/27 07:53:17;;;;;;;1.50;1.00;;;12.30;98.20;;;;;;5022074;28;20476;-83
2021/05/27 07:55:43;;;;;;;1.50;0.93;;;12.30;98.20;;;;;;5007767;28;20695;-84
2021/05/27 07:58:12;;;;;;;1.50;1.00;;;12.30;98.20;;;;;;5015489;28;20484;-84
2021/05/27 08:00:39;;;;;;;1.50;1.00;;;12.40;98.20;;;;;;5009498;28;20496;-83
2021/05/27 08:03:05;;;;;;;1.50;1.00;;;12.40;98.20;;;;;;5015944;28;20550;-82
2021/05/27 08:05:33;;;;;;;1.50;1.00;;;12.40;98.20;;;;;;5012828;28;20645;-85
2021/05/27 08:08:01;;;;;;;1.50;1.00;;;12.40;98.20;;;;;;5011995;28;20479;-85
2021/05/27 08:10:27;;;;;;;1.50;1.00;;;12.40;98.20;;;;;;5009914;28;20975;-84
2021/05/27 08:12:54;;;;;;;1.53;1.00;;;12.40;98.20;;;;;;5012566;28;20486;-83
2021/05/27 08:15:20;;;;;;;1.50;1.00;;;12.50;98.20;;;;;;5009970;28;20526;-82
2021/05/27 08:17:47;;;;;;;1.50;1.10;;;12.50;98.20;;;;;;5015379;28;20479;-83
2021/05/27 08:20:14;;;;;;;1.50;1.00;;;12.50;98.20;;;;;;5009525;28;20644;-83
2021/05/27 08:22:41;;;;;;;1.50;1.10;;;12.50;98.20;;;;;;5014391;28;20578;-83
2021/05/27 08:25:09;;;;;;;1.50;1.00;;;12.50;98.20;;;;;;5007293;28;20495;-83
2021/05/27 08:27:36;;;;;;;1.50;1.10;;;12.50;98.20;;;;;;5014402;28;20491;-79
2021/05/27 08:30:04;;;;;;;1.50;1.00;;;12.60;98.20;;;;;;5009279;28;20468;-85
2021/05/27 08:32:31;;;;;;;1.50;1.00;;;12.70;98.20;;;;;;5012784;28;20943;-84
2021/05/27 08:34:58;;;;;;;1.50;1.00;;;12.80;98.20;;;;;;5013108;28;20460;-84
2021/05/27 08:37:24;;;;;;;1.50;1.03;;;12.90;98.20;;;;;;5013011;28;20479;-85
2021/05/27 08:39:51;;;;;;;1.47;1.10;;;13.00;98.20;;;;;;5012733;28;20468;-84
2021/05/27 08:42:19;;;;;;;1.50;1.00;;;13.00;98.20;;;;;;5012507;28;20896;-84
2021/05/27 08:44:48;;;;;;;1.50;1.00;;;13.00;98.20;;;;;;5013369;28;20567;-83
2021/05/27 08:47:16;;;;;;;1.50;1.10;;;13.00;98.20;;;;;;5010310;28;20562;-81
2021/05/27 08:49:46;;;;;;;1.53;1.10;;;13.00;98.20;;;;;;5014079;28;20470;-84
2021/05/27 08:52:13;;;;;;;1.50;1.00;;;13.00;98.20;;;;;;5011413;28;20483;-84
2021/05/27 08:54:40;;;;;;;1.50;1.00;;;13.00;98.20;;;;;;5011986;28;20848;-83
2021/05/27 08:57:06;;;;;;;1.50;1.00;;;13.00;98.20;;;;;;5010737;28;20483;-83
2021/05/27 08:59:34;;;;;;;1.50;1.00;;;13.00;98.20;;;;;;5015262;28;20718;-83
2021/05/27 09:02:02;;;;;;;1.50;0.90;;;13.00;98.20;;;;;;5014321;28;20517;-85
2021/05/27 09:04:28;;;;;;;1.50;1.00;;;13.00;98.20;;;;;;5014373;28;20468;-83
2021/05/27 09:06:55;;;;;;;1.50;1.00;;;13.00;98.20;;;;;;5009017;28;20499;-85
2021/05/27 09:09:26;;;;;;;1.50;0.97;;;13.00;98.20;;;;;;5015904;28;20977;-86
2021/05/27 09:11:56;;;;;;;1.50;1.00;;;13.00;98.20;;;;;;5009232;28;20877;-88
2021/05/27 09:14:42;;;;;;;1.50;1.00;;;13.00;98.20;;;;;;5015496;28;20468;-85
2021/05/27 09:17:09;;;;;;;1.50;1.00;;;13.00;98.20;;;;;;5011033;28;21037;-83
2021/05/27 09:19:43;;;;;;;1.50;0.90;;;13.00;98.20;;;;;;5016537;28;20543;-86
2021/05/27 09:22:24;;;;;;;1.60;1.30;;;13.00;98.20;;;;;;5003875;28;20586;-86
2021/05/27 09:24:51;;;;;;;1.50;1.00;;;12.90;98.20;;;;;;5009232;28;20463;-84
2021/05/27 09:27:17;;;;;;;1.53;1.30;;;12.90;98.20;;;;;;5009925;28;20472;-81
2021/05/27 09:29:46;;;;;;;1.50;1.00;;;12.90;98.20;;;;;;5012432;28;20460;-84
2021/05/27 09:32:15;;;;;;;1.50;1.00;;;12.80;98.20;;;;;;5006723;28;20499;-86
2021/05/27 09:34:56;;;;;;;3.40;3.10;;;12.70;98.20;;;;;;5014632;28;20472;-85
2021/05/27 09:37:29;;;;;;;1.50;0.90;;;12.70;98.20;;;;;;5009048;28;20541;-84
2021/05/27 09:40:01;;;;;;;1.50;1.00;;;12.70;98.20;;;;;;5011276;28;20471;-85
2021/05/27 09:42:32;;;;;;;1.50;1.00;;;12.70;98.20;;;;;;5011330;28;20968;-86
2021/05/27 09:45:17;;;;;;;1.50;1.00;;;12.70;98.20;;;;;;5011900;28;20504;-85
2021/05/27 09:48:03;;;;;;;1.50;0.90;;;12.60;98.20;;;;;;5015764;28;20482;-85
2021/05/27 09:53:32;;;;;;;1.50;1.00;;;12.60;98.20;;;;;;4997899;28;21124;-86
2021/05/27 09:56:03;;;;;;;1.50;1.00;;;12.60;98.20;;;;;;4999699;28;20473;-85
2021/05/27 09:58:50;;;;;;;1.50;1.00;;;12.50;98.20;;;;;;5024088;28;20452;-85
2021/05/27 10:01:18;;;;;;;1.50;1.00;;;12.50;98.20;;;;;;4999913;28;20570;-85
2021/05/27 10:03:46;;;;;;;1.50;1.03;;;12.40;98.20;;;;;;5020624;28;20963;-85
2021/05/27 10:06:32;;;;;;;1.50;1.00;;;12.30;98.20;;;;;;5002916;28;20504;-83
2021/05/27 10:09:05;;;;;;;1.50;0.97;;;12.30;98.20;;;;;;5019977;28;20995;-82
2021/05/27 10:11:32;;;;;;;1.50;1.00;;;12.30;98.20;;;;;;5010077;28;20478;-82
2021/05/27 10:14:00;;;;;;;1.50;1.00;;;12.30;98.20;;;;;;5019951;28;20460;-86
2021/05/27 10:16:27;;;;;;;1.50;1.00;;;12.30;98.20;;;;;;5009345;28;20546;-84
2021/05/27 10:18:59;;;;;;;1.50;1.00;;;12.30;98.20;;;;;;5023367;28;20476;-85
2021/05/27 10:21:26;;;;;;;1.50;1.00;;;12.40;98.20;;;;;;5009193;28;20511;-84
2021/05/27 10:24:03;;;;;;;1.50;1.00;;;12.50;98.20;;;;;;5022635;28;20492;-85
2021/05/27 10:26:39;;;;;;;1.50;1.10;;;12.60;98.20;;;;;;5008318;28;20506;-85
2021/05/27 10:29:14;;;;;;;1.50;1.00;;;12.70;98.20;;;;;;5018870;28;20517;-86
2021/05/27 10:31:57;;;;;;;;;;;;;;;;;;;;;
2021/05/27 10:34:45;;;;;;;1.50;1.10;;;12.90;98.20;;;;;;5014221;28;20464;-86
2021/05/27 10:37:12;;;;;;;1.50;1.00;;;13.00;98.20;;;;;;4996305;28;21014;-86
2021/05/27 10:39:52;;;;;;;1.50;1.00;;;13.10;98.20;;;;;;5010055;28;20463;-85
2021/05/27 10:43:16;;;;;;;1.50;1.00;;;13.20;98.20;;;;;;5011278;28;20765;-85
2021/05/27 10:46:03;;;;;;;1.50;0.97;;;13.20;98.20;;;;;;5009231;28;20574;-85
2021/05/27 10:48:32;;;;;;;1.50;1.00;;;13.20;98.20;;;;;;4996900;28;20487;-86
2021/05/27 10:51:18;;;;;;;1.50;1.00;;;13.20;98.20;;;;;;5005214;28;20463;-86
2021/05/27 10:53:50;;;;;;;1.50;1.00;;;13.10;98.20;;;;;;5025457;28;20518;-85
2021/05/27 10:56:19;;;;;;;1.50;1.00;;;13.10;98.20;;;;;;5003985;28;20476;-85
2021/05/27 10:59:11;;;;;;;1.50;1.00;;;13.20;98.20;;;;;;5024907;28;20460;-86
2021/05/27 11:01:54;;;;;;;1.50;1.00;;;13.20;98.20;;;;;;5011466;28;20544;-85
2021/05/27 11:04:42;;;;;;;1.50;1.10;;;13.20;98.20;;;;;;5021033;28;20521;-86
2021/05/27 11:07:20;;;;;;;1.50;1.00;;;13.20;98.20;;;;;;5015617;28;20482;-85
2021/05/27 11:09:48;;;;;;;1.50;1.00;;;13.10;98.20;;;;;;5016410;28;20848;-84
2021/05/27 11:12:20;;;;;;;1.50;1.00;;;13.10;98.20;;;;;;5017167;28;20513;-85
2021/05/27 11:15:05;;;;;;;1.50;1.00;;;13.10;98.20;;;;;;5017790;28;20476;-85
2021/05/27 11:17:31;;;;;;;1.50;1.00;;;13.00;98.20;;;;;;5014323;28;20717;-85
2021/05/27 11:20:03;;;;;;;1.50;1.10;;;13.00;98.20;;;;;;5014224;28;21005;-85
2021/05/27 11:22:49;;;;;;;1.50;1.00;;;13.10;98.20;;;;;;5013465;28;20475;-84
2021/05/27 11:25:34;;;;;;;1.50;1.00;;;13.10;98.20;;;;;;5014871;28;20483;-84
2021/05/27 11:28:34;;;;;;;1.50;1.03;;;13.20;98.20;;;;;;5017172;28;20540;-83
2021/05/27 11:31:05;;;;;;;1.50;1.00;;;13.30;98.20;;;;;;5004009;28;20479;-86
2021/05/27 11:33:49;;;;;;;1.50;1.00;;;13.40;98.20;;;;;;5027117;28;20890;-84
2021/05/27 11:36:28;;;;;;;1.50;1.00;;;13.40;98.20;;;;;;5009749;28;20538;-84
2021/05/27 11:38:55;;;;;;;1.50;1.00;;;13.50;98.20;;;;;;5021219;28;20547;-85
2021/05/27 11:41:22;;;;;;;1.50;1.00;;;13.50;98.20;;;;;;5005514;28;20487;-87
2021/05/27 11:44:00;;;;;;;1.50;1.00;;;13.50;98.20;;;;;;5021629;28;20521;-86
2021/05/27 11:46:30;;;;;;;1.53;1.00;;;13.50;98.20;;;;;;5010401;28;20757;-83
2021/05/27 11:49:00;;;;;;;1.50;1.00;;;13.50;98.20;;;;;;5021850;28;20461;-86
2021/05/27 11:51:34;;;;;;;1.50;1.00;;;13.50;98.20;;;;;;5013279;28;20502;-85
2021/05/27 11:54:02;;;;;;;1.50;1.00;;;13.50;98.20;;;;;;5024859;28;20849;-85
2021/05/27 11:56:31;;;;;;;1.50;1.03;;;13.40;98.20;;;;;;5010909;28;20487;-85
2021/05/27 11:59:01;;;;;;;1.50;0.90;;;13.30;98.20;;;;;;5027010;28;20456;-85
2021/05/27 12:01:29;;;;;;;1.50;1.00;;;13.30;98.20;;;;;;5012259;28;20486;-85
2021/05/27 12:04:00;;;;;;;1.50;1.00;;;13.30;98.20;;;;;;5027628;28;20990;-86
2021/05/27 12:06:27;;;;;;;1.50;1.03;;;13.30;98.20;;;;;;5016793;28;20573;-82
2021/05/27 12:08:54;;;;;;;1.50;1.00;;;13.30;98.20;;;;;;5028184;28;20465;-84
2021/05/27 12:11:29;;;;;;;1.50;1.10;;;13.40;98.20;;;;;;5011629;28;20672;-84
2021/05/27 12:14:00;;;;;;;1.50;1.00;;;13.50;98.20;;;;;;5023972;28;20696;-83
2021/05/27 12:16:33;;;;;;;1.50;1.00;;;13.50;98.20;;;;;;5011027;28;20475;-84
2021/05/27 12:19:01;;;;;;;1.50;1.10;;;13.50;98.20;;;;;;5027139;28;20476;-83
2021/05/27 12:21:28;;;;;;;1.50;1.00;;;13.60;98.20;;;;;;5012524;28;20483;-83
2021/05/27 12:23:55;;;;;;;1.70;1.20;;;13.70;98.20;;;;;;5027920;28;20472;-82
2021/05/27 12:26:22;;;;;;;1.50;1.00;;;14.00;98.20;;;;;;5011666;28;20491;-83
2021/05/27 12:28:48;;;;;;;1.50;0.90;;;14.20;98.20;;;;;;5026604;28;20468;-82
2021/05/27 12:31:15;;;;;;;1.50;1.00;;;14.30;98.20;;;;;;5011088;28;20498;-82
2021/05/27 12:33:41;;;;;;;1.50;0.90;;;14.50;98.20;;;;;;5028804;28;20525;-82
2021/05/27 12:36:10;;;;;;;1.57;1.07;;;14.60;98.20;;;;;;5009241;28;20478;-81
2021/05/27 12:38:44;;;;;;;1.50;1.00;;;14.70;98.20;;;;;;5028391;28;20512;-81
2021/05/27 12:41:12;;;;;;;1.50;1.00;;;14.80;98.20;;;;;;5009444;28;20483;-82
2021/05/27 12:43:41;;;;;;;1.50;1.00;;;14.80;98.20;;;;;;5025910;28;20526;-80
2021/05/27 12:46:09;;;;;;;1.50;1.00;;;14.80;98.20;;;;;;5004350;28;20476;-79
2021/05/27 12:48:47;;;;;;;1.50;1.00;;;14.70;98.20;;;;;;5025506;28;20486;-81
2021/05/27 12:51:14;;;;;;;1.50;0.93;;;14.50;98.20;;;;;;5008798;28;20744;-80
2021/05/27 12:53:51;;;;;;;1.50;1.00;;;14.40;98.20;;;;;;5023399;28;20459;-79
2021/05/27 12:56:20;;;;;;;1.50;0.90;;;14.30;98.20;;;;;;5008667;28;20476;-80
2021/05/27 12:58:49;;;;;;;1.50;1.00;;;14.30;98.20;;;;;;5019777;28;20456;-79
2021/05/27 13:01:16;;;;;;;1.50;0.90;;;14.40;98.20;;;;;;5009498;28;20518;-80
2021/05/27 13:03:46;;;;;;;1.50;0.97;;;14.60;98.20;;;;;;5024137;28;20557;-79